Time;durP1;ratioP1;P1;durP2;ratioP2;P2;SDS_P1;SDS_P2;PMS_P1;PMS_P2;Temp;Humidity;BMP_temperature;BMP_pressure;BME280_temperature;BME280_humidity;BME280_pressure;Samples;Min_cycle;Max_cycle;Signal;HPM_P1;HPM_P2
2023/01/26 04:10:34;;;;;;;33.85;11.90;;;11.80;61.50;;;;;;4902097;29;19923;-76
2023/01/26 04:21:37;;;;;;;22.90;8.77;;;11.90;62.00;;;;;;4916212;29;20048;-74
2023/01/26 04:26:57;;;;;;;19.30;7.78;;;11.90;62.10;;;;;;4915997;29;20116;-73
2023/01/26 04:29:22;;;;;;;19.05;8.18;;;11.90;62.00;;;;;;4904523;29;20044;-73
2023/01/26 04:31:48;;;;;;;16.75;6.28;;;11.90;62.00;;;;;;4921241;29;20047;-75
2023/01/26 04:37:59;;;;;;;15.88;6.15;;;11.90;61.90;;;;;;4919966;29;20051;-75
2023/01/26 04:40:24;;;;;;;17.67;5.82;;;11.90;62.50;;;;;;4920729;29;20040;-76
2023/01/26 04:42:50;;;;;;;19.60;5.40;;;11.90;62.50;;;;;;4904336;29;20036;-75
2023/01/26 04:45:16;;;;;;;16.98;5.15;;;11.90;62.30;;;;;;4921078;29;20107;-76
2023/01/26 04:47:42;;;;;;;18.95;6.30;;;11.90;62.20;;;;;;4896470;29;20070;-75
2023/01/26 04:50:08;;;;;;;16.88;4.30;;;11.90;62.30;;;;;;4904205;29;20056;-77
2023/01/26 04:52:34;;;;;;;17.85;5.18;;;11.90;62.30;;;;;;4904251;29;20052;-74
2023/01/26 04:55:00;;;;;;;20.00;4.53;;;11.90;62.30;;;;;;4896470;29;20378;-74
2023/01/26 04:57:26;;;;;;;12.68;4.22;;;11.90;62.30;;;;;;4917914;29;20048;-77
2023/01/26 04:59:51;;;;;;;18.83;5.97;;;11.90;62.30;;;;;;4920699;29;20360;-76
2023/01/26 05:02:17;;;;;;;14.05;4.95;;;11.90;62.30;;;;;;4920523;29;20119;-74
2023/01/26 05:04:43;;;;;;;14.38;3.97;;;11.90;62.50;;;;;;4920206;29;20078;-71
2023/01/26 05:07:08;;;;;;;18.05;5.30;;;11.90;63.70;;;;;;4920674;29;20040;-78
2023/01/26 05:09:34;;;;;;;12.63;3.70;;;11.80;63.70;;;;;;4903886;29;20044;-74
2023/01/26 05:12:32;;;;;;;16.27;3.92;;;11.90;63.40;;;;;;4919510;29;20387;-78
2023/01/26 05:14:45;;;;;;;12.80;4.53;;;11.70;63.30;;;;;;4919581;29;20103;-76
2023/01/26 05:17:14;;;;;;;13.38;3.60;;;11.80;64.50;;;;;;4903458;29;20119;-76
2023/01/26 05:19:44;;;;;;;16.58;3.42;;;12.00;64.50;;;;;;4920631;29;20471;-76
2023/01/26 05:22:28;;;;;;;13.10;3.65;;;12.30;64.50;;;;;;4918969;29;20059;-76
2023/01/26 05:33:14;;;;;;;11.60;3.42;;;12.90;64.80;;;;;;4861976;29;20079;-77
2023/01/26 05:35:41;;;;;;;12.10;2.85;;;13.10;65.30;;;;;;4856966;29;20061;-76
2023/01/26 05:43:10;;;;;;;11.75;2.42;;;13.30;65.70;;;;;;4858110;29;20045;-77
2023/01/26 05:46:00;;;;;;;10.48;2.90;;;13.40;65.50;;;;;;4817727;29;20058;-76
2023/01/26 05:48:26;;;;;;;10.07;2.45;;;13.60;65.10;;;;;;4920252;29;20439;-77
2023/01/26 05:50:55;;;;;;;19.30;3.00;;;13.60;64.90;;;;;;4903621;29;20048;-76
2023/01/26 05:53:21;;;;;;;11.38;2.45;;;13.70;64.80;;;;;;4919455;29;20393;-74
2023/01/26 05:55:47;;;;;;;17.95;2.80;;;13.80;64.70;;;;;;4920227;29;20044;-74
2023/01/26 05:58:13;;;;;;;14.50;2.45;;;13.80;64.60;;;;;;4898886;29;20135;-77
2023/01/26 06:00:38;;;;;;;11.60;2.38;;;13.90;64.80;;;;;;4917640;29;20115;-77
2023/01/26 06:03:07;;;;;;;11.27;2.42;;;13.90;64.90;;;;;;4902692;29;20115;-77
2023/01/26 06:05:33;;;;;;;12.38;2.42;;;14.00;64.80;;;;;;4919015;29;20059;-76
2023/01/26 06:07:58;;;;;;;13.10;2.42;;;14.10;64.90;;;;;;4918106;29;20052;-76
2023/01/26 06:10:25;;;;;;;10.93;2.88;;;14.20;65.00;;;;;;4903504;29;20363;-76
2023/01/26 06:12:50;;;;;;;14.52;1.80;;;14.20;65.20;;;;;;4903368;29;20130;-77
2023/01/26 06:15:16;;;;;;;14.32;2.20;;;14.20;65.40;;;;;;4903190;29;20126;-72
2023/01/26 06:17:42;;;;;;;15.75;3.53;;;14.30;65.30;;;;;;4902547;29;20106;-79
2023/01/26 06:20:13;;;;;;;14.43;2.00;;;14.40;65.00;;;;;;4919769;29;20107;-76
2023/01/26 06:22:39;;;;;;;17.98;3.05;;;14.40;64.60;;;;;;4902740;29;20090;-77
2023/01/26 06:25:04;;;;;;;25.13;3.40;;;14.40;64.50;;;;;;4919702;29;20083;-80
2023/01/26 06:27:30;;;;;;;32.40;3.75;;;14.50;64.50;;;;;;4919820;29;20438;-76
2023/01/26 06:29:56;;;;;;;24.85;3.28;;;14.50;64.30;;;;;;4919481;29;20036;-77
2023/01/26 06:32:22;;;;;;;21.73;3.13;;;14.60;64.40;;;;;;4900250;29;20056;-76
2023/01/26 06:34:47;;;;;;;16.17;3.22;;;14.60;64.40;;;;;;4900812;29;20052;-78
2023/01/26 06:37:13;;;;;;;18.02;2.88;;;14.70;64.60;;;;;;4884674;29;20064;-78
2023/01/26 06:39:41;;;;;;;12.73;2.20;;;14.70;64.60;;;;;;4900534;29;20468;-76
2023/01/26 06:42:08;;;;;;;16.70;2.85;;;14.80;64.40;;;;;;4900909;29;20446;-75
2023/01/26 06:44:34;;;;;;;14.88;2.40;;;14.80;64.40;;;;;;4900597;29;20040;-76
2023/01/26 06:46:59;;;;;;;15.10;2.58;;;14.80;64.40;;;;;;4883745;29;20554;-75
2023/01/26 06:49:28;;;;;;;15.98;2.65;;;14.90;64.40;;;;;;4899258;29;20460;-79
2023/01/26 06:51:53;;;;;;;15.75;2.33;;;15.00;64.20;;;;;;4905486;29;20047;-78
2023/01/26 06:54:19;;;;;;;11.40;2.88;;;15.00;64.20;;;;;;4919430;29;20044;-77
2023/01/26 06:56:45;;;;;;;15.38;2.47;;;15.00;64.40;;;;;;4919237;29;20490;-79
2023/01/26 06:59:10;;;;;;;23.98;3.55;;;15.10;64.50;;;;;;4903205;29;20063;-71
2023/01/26 07:01:43;;;;;;;22.50;2.80;;;15.10;64.40;;;;;;4918782;29;20467;-78
2023/01/26 07:04:09;;;;;;;22.33;3.40;;;15.10;64.50;;;;;;4888783;29;20064;-77
2023/01/26 07:06:38;;;;;;;26.33;4.18;;;15.00;64.20;;;;;;4900392;29;20040;-79
2023/01/26 07:09:04;;;;;;;28.25;3.97;;;15.00;64.50;;;;;;4868377;29;20158;-78
2023/01/26 07:11:31;;;;;;;28.70;3.53;;;14.90;64.40;;;;;;4883644;29;20113;-77
2023/01/26 07:13:57;;;;;;;31.90;4.68;;;14.90;64.50;;;;;;4899859;29;20045;-76
2023/01/26 07:16:23;;;;;;;23.55;4.50;;;14.80;64.30;;;;;;4867549;29;20063;-74
2023/01/26 07:18:49;;;;;;;21.27;2.95;;;14.70;64.50;;;;;;4900061;29;20052;-77
2023/01/26 07:21:17;;;;;;;28.33;3.95;;;14.70;64.60;;;;;;4883259;29;20056;-76
2023/01/26 07:23:44;;;;;;;23.80;3.72;;;14.70;64.50;;;;;;4900132;29;20103;-77
2023/01/26 07:26:10;;;;;;;20.55;3.60;;;14.70;64.50;;;;;;4883749;29;20407;-76
2023/01/26 07:28:35;;;;;;;19.10;3.40;;;14.60;64.60;;;;;;4899988;29;20048;-76
2023/01/26 07:31:03;;;;;;;17.23;3.55;;;14.60;64.60;;;;;;4899893;29;20063;-78
2023/01/26 07:33:30;;;;;;;18.45;3.47;;;14.50;64.70;;;;;;4900246;29;20089;-76
2023/01/26 07:35:56;;;;;;;17.67;2.70;;;14.50;64.80;;;;;;4900314;29;20048;-77
2023/01/26 07:38:22;;;;;;;17.48;3.53;;;14.40;64.80;;;;;;4883635;29;20052;-77
2023/01/26 07:40:48;;;;;;;12.15;3.13;;;14.40;65.00;;;;;;4883471;29;20064;-75
2023/01/26 07:43:14;;;;;;;24.63;4.90;;;14.30;65.20;;;;;;4899562;29;20157;-78
2023/01/26 07:45:43;;;;;;;14.57;2.50;;;14.30;65.40;;;;;;4882228;29;20059;-78
2023/01/26 07:48:09;;;;;;;17.33;3.08;;;14.30;65.20;;;;;;4882990;29;20044;-76
2023/01/26 07:50:35;;;;;;;18.73;3.15;;;14.20;65.20;;;;;;4899805;29;20065;-77
2023/01/26 07:53:01;;;;;;;16.85;2.75;;;14.20;65.10;;;;;;4883028;29;20088;-77
2023/01/26 07:55:29;;;;;;;19.20;2.78;;;14.10;65.20;;;;;;4882152;29;20127;-77
2023/01/26 07:58:01;;;;;;;14.45;2.85;;;14.10;65.30;;;;;;4899432;29;20129;-77
2023/01/26 08:00:27;;;;;;;13.10;2.88;;;14.10;65.40;;;;;;4899255;29;20041;-79
2023/01/26 08:02:56;;;;;;;20.05;3.35;;;14.00;65.50;;;;;;4906187;29;20075;-78
2023/01/26 08:05:21;;;;;;;23.23;2.92;;;14.00;65.80;;;;;;4921957;29;20044;-77
2023/01/26 08:07:55;;;;;;;22.23;3.38;;;14.00;65.60;;;;;;4888564;29;20498;-78
2023/01/26 08:10:36;;;;;;;18.23;3.20;;;14.00;65.40;;;;;;4902707;29;20467;-76
2023/01/26 08:13:01;;;;;;;15.23;3.08;;;14.00;63.60;;;;;;4902826;29;20051;-77
2023/01/26 08:15:28;;;;;;;16.10;3.40;;;14.00;61.60;;;;;;4903093;29;20120;-76
2023/01/26 08:17:54;;;;;;;18.63;2.75;;;13.90;60.80;;;;;;4886730;29;20102;-77
2023/01/26 08:20:20;;;;;;;17.55;3.10;;;13.90;61.00;;;;;;4903195;29;20048;-75
2023/01/26 08:22:46;;;;;;;15.48;2.95;;;13.90;61.30;;;;;;4904782;29;20055;-78
2023/01/26 08:25:11;;;;;;;13.38;2.70;;;13.80;61.40;;;;;;4922161;29;20051;-76
2023/01/26 08:27:37;;;;;;;10.57;3.20;;;13.70;61.30;;;;;;4921955;29;20051;-76
2023/01/26 08:30:03;;;;;;;11.88;3.22;;;13.70;61.40;;;;;;4921775;29;20048;-77
2023/01/26 08:32:29;;;;;;;18.83;4.75;;;13.60;61.40;;;;;;4921974;29;20136;-76
2023/01/26 08:34:55;;;;;;;11.90;2.65;;;13.60;61.70;;;;;;4905067;29;20060;-75
2023/01/26 08:37:21;;;;;;;12.82;2.95;;;13.60;61.90;;;;;;4921672;29;20062;-77
2023/01/26 08:39:47;;;;;;;14.35;2.75;;;13.50;62.10;;;;;;4922139;29;20092;-77
2023/01/26 08:42:12;;;;;;;10.60;2.45;;;13.50;62.20;;;;;;4904931;29;20044;-76
2023/01/26 08:44:38;;;;;;;14.48;3.30;;;13.50;62.40;;;;;;4904949;29;20111;-76
2023/01/26 08:47:04;;;;;;;9.35;2.03;;;13.50;62.60;;;;;;4904987;29;20048;-77
2023/01/26 08:49:29;;;;;;;15.18;2.80;;;13.40;62.70;;;;;;4921786;29;20062;-78
2023/01/26 08:51:55;;;;;;;12.65;2.50;;;13.50;62.60;;;;;;4903773;29;20062;-76
2023/01/26 08:54:21;;;;;;;16.08;3.22;;;13.50;62.50;;;;;;4904106;29;20071;-77
2023/01/26 08:56:46;;;;;;;9.02;2.80;;;13.50;62.50;;;;;;4903993;29;20063;-77
2023/01/26 08:59:12;;;;;;;9.20;2.53;;;13.50;62.40;;;;;;4904150;29;20068;-73
2023/01/26 09:01:38;;;;;;;12.77;2.67;;;13.40;62.60;;;;;;4920828;29;20115;-77
2023/01/26 09:04:04;;;;;;;13.18;3.00;;;13.40;62.70;;;;;;4920719;29;20056;-75
2023/01/26 09:06:31;;;;;;;13.60;3.05;;;13.40;62.80;;;;;;4903807;29;20182;-75
2023/01/26 09:08:57;;;;;;;16.50;2.20;;;13.40;62.90;;;;;;4919636;29;20115;-74
2023/01/26 09:11:23;;;;;;;9.52;2.00;;;13.40;63.10;;;;;;4903507;29;20547;-77
2023/01/26 09:13:57;;;;;;;16.30;2.38;;;13.40;63.30;;;;;;4920038;29;20122;-77
2023/01/26 09:16:24;;;;;;;14.88;2.80;;;13.30;63.40;;;;;;4920343;29;20060;-73
2023/01/26 09:18:56;;;;;;;10.13;2.30;;;13.30;63.60;;;;;;4919842;29;20135;-81
2023/01/26 09:21:24;;;;;;;9.50;2.42;;;13.30;63.70;;;;;;4909730;29;20040;-76
2023/01/26 09:23:50;;;;;;;8.23;2.00;;;13.30;63.90;;;;;;4919808;29;20040;-76
2023/01/26 09:26:16;;;;;;;9.57;2.10;;;13.30;64.00;;;;;;4895746;29;20054;-76
2023/01/26 09:28:42;;;;;;;11.27;2.83;;;13.30;64.00;;;;;;4920455;29;20095;-76
2023/01/26 09:31:09;;;;;;;13.90;2.35;;;13.30;64.10;;;;;;4887919;29;20063;-75
2023/01/26 09:33:36;;;;;;;11.38;3.03;;;13.30;64.30;;;;;;4920221;29;20123;-76
2023/01/26 09:36:06;;;;;;;9.75;2.17;;;13.30;64.40;;;;;;4919880;29;20036;-75
2023/01/26 09:38:33;;;;;;;10.20;2.05;;;13.20;64.50;;;;;;4903650;29;20379;-76
2023/01/26 09:41:16;;;;;;;9.98;2.92;;;13.20;64.70;;;;;;4920115;29;20043;-77
2023/01/26 09:43:43;;;;;;;12.65;2.22;;;13.20;64.90;;;;;;4902749;29;20039;-77
2023/01/26 09:46:18;;;;;;;7.78;1.90;;;13.20;64.90;;;;;;4903103;29;20542;-76
2023/01/26 09:49:11;;;;;;;10.57;2.20;;;13.20;65.10;;;;;;4919894;29;20475;-76
2023/01/26 09:51:57;;;;;;;15.63;2.47;;;13.20;65.10;;;;;;4916114;29;20045;-77
2023/01/26 09:54:42;;;;;;;12.68;2.42;;;13.20;65.00;;;;;;4918947;29;20119;-77
2023/01/26 09:57:16;;;;;;;9.57;2.05;;;13.20;65.20;;;;;;4901058;29;20052;-77
2023/01/26 09:59:54;;;;;;;12.30;2.80;;;13.20;65.20;;;;;;4914035;29;20052;-77
2023/01/26 10:02:41;;;;;;;11.25;1.85;;;13.20;65.20;;;;;;4912773;29;20053;-76
2023/01/26 10:05:18;;;;;;;7.72;1.65;;;13.20;65.20;;;;;;4913689;29;20484;-76
2023/01/26 10:07:44;;;;;;;8.25;2.40;;;13.20;65.20;;;;;;4908134;29;20489;-75
2023/01/26 10:10:28;;;;;;;9.30;1.85;;;13.20;65.20;;;;;;4910488;29;20389;-78
2023/01/26 10:12:55;;;;;;;11.98;2.50;;;13.20;65.30;;;;;;4908903;29;20123;-76
2023/01/26 10:15:29;;;;;;;11.63;1.60;;;13.20;65.20;;;;;;4913557;29;20052;-76
2023/01/26 10:17:58;;;;;;;19.25;2.42;;;13.20;65.20;;;;;;4917464;29;20058;-76
2023/01/26 10:20:34;;;;;;;15.40;2.35;;;13.20;65.30;;;;;;4918622;29;20475;-76
2023/01/26 10:23:22;;;;;;;11.02;2.00;;;13.20;65.50;;;;;;4903265;29;20056;-76
2023/01/26 10:25:50;;;;;;;14.30;2.38;;;13.10;65.50;;;;;;4900877;29;20127;-75
2023/01/26 10:28:28;;;;;;;15.07;2.83;;;13.10;65.70;;;;;;4884259;29;20115;-76
2023/01/26 10:30:54;;;;;;;19.02;2.78;;;13.10;65.90;;;;;;4900703;29;20482;-74
2023/01/26 10:33:24;;;;;;;11.23;2.50;;;13.10;66.00;;;;;;4898706;29;20048;-77
2023/01/26 10:35:50;;;;;;;15.32;2.67;;;13.10;66.00;;;;;;4902924;29;20055;-78
2023/01/26 10:38:40;;;;;;;14.48;2.28;;;13.20;66.00;;;;;;4886963;29;20071;-78
2023/01/26 10:41:26;;;;;;;13.73;2.13;;;13.30;66.10;;;;;;4887033;29;20146;-78
2023/01/26 10:44:01;;;;;;;13.70;2.30;;;13.50;65.70;;;;;;4886443;29;20048;-75
2023/01/26 10:46:30;;;;;;;11.80;1.98;;;13.60;65.70;;;;;;4919442;29;20047;-76
2023/01/26 10:49:13;;;;;;;7.82;2.25;;;13.80;65.60;;;;;;4902411;29;20040;-76
2023/01/26 10:51:43;;;;;;;13.00;3.00;;;13.90;65.30;;;;;;4918970;29;20139;-76
2023/01/26 10:54:19;;;;;;;13.25;2.25;;;14.00;65.20;;;;;;4885480;29;20054;-77
2023/01/26 10:56:49;;;;;;;12.60;1.95;;;14.10;65.00;;;;;;4919145;29;20047;-78
2023/01/26 10:59:33;;;;;;;10.13;2.28;;;14.10;64.90;;;;;;4902236;29;20115;-77
2023/01/26 11:02:12;;;;;;;12.52;2.85;;;14.20;64.90;;;;;;4902434;29;20355;-76
2023/01/26 11:04:38;;;;;;;11.95;2.90;;;14.20;64.80;;;;;;4902062;29;20048;-76
2023/01/26 11:07:23;;;;;;;9.80;1.95;;;14.30;64.60;;;;;;4925779;29;20055;-78
2023/01/26 11:09:52;;;;;;;10.68;2.50;;;14.40;64.70;;;;;;4902444;29;20463;-77
2023/01/26 11:12:19;;;;;;;8.82;2.08;;;14.50;64.40;;;;;;4901666;29;20043;-78
2023/01/26 11:15:05;;;;;;;12.00;2.15;;;14.60;64.30;;;;;;4885672;29;20457;-74
2023/01/26 11:17:45;;;;;;;11.15;2.25;;;14.60;64.30;;;;;;4917384;29;20050;-71
2023/01/26 11:20:40;;;;;;;10.32;2.35;;;14.70;64.80;;;;;;4886578;29;20107;-74
2023/01/26 11:23:15;;;;;;;13.32;2.83;;;14.80;64.10;;;;;;4901708;29;20115;-74
2023/01/26 11:26:02;;;;;;;8.00;2.15;;;14.90;63.70;;;;;;4901891;29;20127;-74
2023/01/26 11:28:39;;;;;;;10.38;2.33;;;14.90;63.70;;;;;;4918651;29;20043;-75
2023/01/26 11:31:18;;;;;;;10.90;2.38;;;14.90;63.70;;;;;;4918669;29;20040;-74
2023/01/26 11:33:57;;;;;;;11.65;2.67;;;15.00;63.70;;;;;;4918559;29;20071;-73
2023/01/26 11:36:33;;;;;;;9.98;2.17;;;15.00;63.80;;;;;;4932491;29;20164;-74
2023/01/26 11:39:20;;;;;;;10.88;2.15;;;15.00;63.30;;;;;;4922361;29;20048;-74
2023/01/26 11:42:04;;;;;;;7.40;1.98;;;15.10;63.50;;;;;;4922577;29;20404;-79
2023/01/26 11:44:38;;;;;;;;;;;15.10;63.60;;;;;;4922982;29;20052;-75
2023/01/26 11:47:07;;;;;;;;;;;15.20;63.60;;;;;;4922987;29;19965;-72
2023/01/26 11:49:46;;;;;;;12.32;2.42;;;15.30;64.00;;;;;;4922356;29;19922;-73
2023/01/26 11:52:18;;;;;;;11.05;1.83;;;15.30;64.10;;;;;;4907675;29;20048;-73
2023/01/26 11:55:00;;;;;;;10.32;2.05;;;15.40;64.10;;;;;;4922108;29;20040;-74
2023/01/26 11:57:42;;;;;;;7.10;2.10;;;15.40;64.40;;;;;;4905705;29;20132;-72
2023/01/26 12:00:12;;;;;;;13.48;2.72;;;15.40;64.40;;;;;;4890352;29;20459;-72
2023/01/26 12:02:40;;;;;;;11.45;1.77;;;15.40;64.50;;;;;;4922058;29;20048;-73
2023/01/26 12:05:12;;;;;;;11.55;2.15;;;15.40;64.60;;;;;;4921980;29;20052;-73
2023/01/26 12:07:53;;;;;;;11.02;2.20;;;15.40;65.00;;;;;;4922277;29;20084;-75
2023/01/26 12:10:29;;;;;;;8.13;1.77;;;15.40;65.60;;;;;;4907918;29;20452;-75
2023/01/26 12:13:16;;;;;;;14.38;2.13;;;15.40;65.60;;;;;;4921939;29;20048;-77
2023/01/26 12:15:49;;;;;;;6.18;1.77;;;15.40;66.70;;;;;;4921909;29;20048;-75
2023/01/26 12:18:25;;;;;;;9.57;1.52;;;15.30;66.10;;;;;;4921814;29;20356;-76
2023/01/26 12:20:59;;;;;;;11.82;2.60;;;15.30;65.50;;;;;;4904826;29;20127;-76
2023/01/26 12:23:49;;;;;;;19.58;2.22;;;15.30;65.00;;;;;;4904406;29;20523;-76
2023/01/26 12:26:22;;;;;;;11.30;1.90;;;15.20;64.20;;;;;;4921713;29;20058;-77
2023/01/26 12:28:53;;;;;;;13.02;1.90;;;15.10;64.30;;;;;;4889688;29;20162;-76
2023/01/26 12:31:39;;;;;;;14.98;1.83;;;15.00;64.40;;;;;;4921573;29;20051;-75
2023/01/26 12:34:11;;;;;;;12.52;2.15;;;14.90;64.60;;;;;;4889936;29;20205;-77
2023/01/26 12:37:04;;;;;;;9.10;1.55;;;14.90;64.80;;;;;;4889736;29;20082;-77
2023/01/26 12:39:49;;;;;;;10.27;1.83;;;14.80;64.80;;;;;;4921577;29;20418;-77
2023/01/26 12:42:27;;;;;;;6.72;1.80;;;14.70;65.00;;;;;;4904933;29;20296;-76
2023/01/26 12:44:58;;;;;;;8.07;1.35;;;14.70;65.70;;;;;;4921575;29;20048;-75
2023/01/26 12:47:36;;;;;;;8.10;1.77;;;14.60;65.20;;;;;;4904263;29;20044;-75
2023/01/26 12:50:43;;;;;;;5.63;1.77;;;14.60;65.30;;;;;;4921828;29;20059;-77
2023/01/26 12:53:17;;;;;;;9.25;1.30;;;14.50;65.30;;;;;;4889111;29;20063;-76
2023/01/26 12:56:05;;;;;;;8.20;1.40;;;14.50;65.40;;;;;;4904884;29;20056;-75
2023/01/26 12:58:36;;;;;;;7.10;1.20;;;14.50;65.40;;;;;;4889194;29;20147;-75
2023/01/26 13:01:05;;;;;;;8.50;1.88;;;14.40;65.40;;;;;;4904593;29;20052;-76
2023/01/26 13:03:50;;;;;;;5.80;1.92;;;14.40;65.40;;;;;;4896112;29;20052;-76
2023/01/26 13:06:23;;;;;;;5.40;1.20;;;14.40;65.40;;;;;;4902266;29;20497;-76
2023/01/26 13:08:59;;;;;;;8.77;1.40;;;14.30;65.40;;;;;;4902134;29;20056;-76
2023/01/26 13:11:48;;;;;;;8.07;1.38;;;14.30;65.40;;;;;;4901821;29;20376;-75
2023/01/26 13:14:33;;;;;;;8.35;1.15;;;14.30;65.40;;;;;;4902404;29;20049;-76
2023/01/26 13:17:14;;;;;;;7.07;1.45;;;14.30;65.40;;;;;;4902485;29;20076;-76
2023/01/26 13:19:42;;;;;;;5.68;1.10;;;14.20;65.40;;;;;;4901776;29;20075;-75
2023/01/26 13:22:17;;;;;;;7.88;1.98;;;14.20;65.40;;;;;;4902610;29;20065;-75
2023/01/26 13:24:47;;;;;;;6.07;1.20;;;14.20;65.40;;;;;;4885652;29;20131;-76
2023/01/26 13:27:46;;;;;;;5.47;1.50;;;14.20;65.40;;;;;;4885519;29;20052;-75
2023/01/26 13:30:21;;;;;;;6.13;1.98;;;14.20;65.30;;;;;;4869992;29;20075;-77
2023/01/26 13:32:46;;;;;;;6.55;1.20;;;14.20;65.30;;;;;;4901717;29;20113;-77
2023/01/26 13:35:13;;;;;;;6.65;1.23;;;14.10;65.40;;;;;;4902569;29;20056;-75
2023/01/26 13:37:57;;;;;;;7.18;1.30;;;14.10;65.40;;;;;;4885410;29;20115;-78
2023/01/26 13:40:39;;;;;;;5.47;1.17;;;14.10;65.40;;;;;;4884802;29;20068;-76
2023/01/26 13:43:28;;;;;;;4.13;1.00;;;14.00;65.30;;;;;;4901658;29;20045;-76
2023/01/26 13:45:57;;;;;;;6.90;1.70;;;14.00;65.40;;;;;;4901548;29;20041;-76
2023/01/26 13:48:43;;;;;;;8.20;1.42;;;14.00;65.70;;;;;;4901729;29;20059;-70
2023/01/26 13:51:27;;;;;;;11.07;1.58;;;14.00;66.00;;;;;;4896074;29;20341;-74
2023/01/26 13:54:00;;;;;;;;;;;14.00;66.00;;;;;;4901962;29;20417;-74
2023/01/26 13:57:06;;;;;;;9.00;1.50;;;14.00;65.90;;;;;;4901008;29;20287;-75
2023/01/26 13:59:32;;;;;;;13.80;1.60;;;13.90;66.00;;;;;;4899254;29;20373;-76
2023/01/26 14:01:58;;;;;;;10.18;1.67;;;14.10;66.00;;;;;;4901138;29;20409;-76
2023/01/26 14:04:29;;;;;;;13.68;2.05;;;14.20;66.10;;;;;;4915948;29;20056;-76
2023/01/26 14:07:08;;;;;;;15.38;2.35;;;14.30;65.90;;;;;;4919878;29;20431;-75
2023/01/26 14:09:50;;;;;;;11.65;1.80;;;14.50;65.20;;;;;;4903499;29;20090;-75
2023/01/26 14:12:44;;;;;;;11.75;2.25;;;14.60;65.10;;;;;;4920033;29;20431;-76
2023/01/26 14:15:22;;;;;;;16.48;1.95;;;14.70;65.30;;;;;;4917846;29;20072;-78
2023/01/26 14:18:00;;;;;;;10.23;1.92;;;14.80;65.20;;;;;;4920109;29;20428;-77
2023/01/26 14:20:35;;;;;;;13.70;2.17;;;14.90;65.30;;;;;;4919692;29;20123;-77
2023/01/26 14:23:09;;;;;;;19.55;2.85;;;15.00;65.30;;;;;;4919839;29;20044;-77
2023/01/26 14:25:35;;;;;;;18.50;2.42;;;15.10;65.20;;;;;;4919574;29;20052;-78
2023/01/26 14:28:02;;;;;;;17.38;2.15;;;15.10;65.20;;;;;;4887336;29;20619;-80
2023/01/26 14:30:34;;;;;;;24.88;2.83;;;15.20;65.30;;;;;;4902732;29;20036;-78
2023/01/26 14:33:17;;;;;;;19.17;2.75;;;15.30;65.30;;;;;;4919554;29;20062;-79
2023/01/26 14:36:01;;;;;;;21.33;2.92;;;15.30;65.20;;;;;;4886836;29;20048;-74
2023/01/26 14:38:31;;;;;;;16.05;2.65;;;15.40;65.30;;;;;;4902871;29;20119;-76
2023/01/26 14:41:00;;;;;;;26.00;3.03;;;15.50;64.60;;;;;;4919550;29;20055;-80
2023/01/26 14:43:27;;;;;;;35.00;3.90;;;15.50;63.60;;;;;;4919423;29;20032;-74
2023/01/26 14:45:58;;;;;;;25.20;4.50;;;15.50;63.60;;;;;;4919512;29;20368;-80
2023/01/26 14:48:31;;;;;;;32.67;3.47;;;15.60;63.80;;;;;;4902593;29;20416;-79
2023/01/26 14:50:58;;;;;;;34.13;3.28;;;15.60;63.90;;;;;;4902175;29;20048;-81
2023/01/26 14:53:25;;;;;;;19.98;3.33;;;15.70;63.90;;;;;;4902665;29;20044;-77
2023/01/26 14:55:52;;;;;;;15.93;3.25;;;15.70;63.50;;;;;;4902346;29;20044;-75
2023/01/26 14:58:26;;;;;;;27.50;3.42;;;15.70;63.50;;;;;;4919304;29;20106;-77
2023/01/26 15:00:52;;;;;;;16.67;3.05;;;15.70;63.50;;;;;;4902584;29;20119;-77
2023/01/26 15:03:35;;;;;;;20.55;2.38;;;15.70;63.70;;;;;;4919040;29;20063;-76
2023/01/26 15:06:19;;;;;;;19.35;2.92;;;15.80;63.90;;;;;;4902260;29;20067;-79
2023/01/26 15:08:55;;;;;;;19.42;3.45;;;15.80;62.50;;;;;;4902511;29;20051;-79
2023/01/26 15:14:29;;;;;;;29.67;2.67;;;15.90;64.00;;;;;;4902622;29;20097;-77
2023/01/26 15:16:55;;;;;;;17.88;2.55;;;15.90;64.30;;;;;;4887057;29;20056;-78
2023/01/26 15:19:26;;;;;;;14.10;2.08;;;16.00;64.30;;;;;;4902349;29;20063;-76
2023/01/26 15:21:52;;;;;;;19.55;2.33;;;16.00;64.40;;;;;;4902391;29;20040;-78
2023/01/26 15:24:19;;;;;;;15.68;2.50;;;16.10;64.50;;;;;;4918799;29;20122;-78
2023/01/26 15:26:44;;;;;;;16.15;2.80;;;16.10;64.70;;;;;;4902603;29;20048;-76
2023/01/26 15:29:31;;;;;;;10.25;1.73;;;16.10;64.80;;;;;;4918934;29;20115;-80
2023/01/26 15:31:57;;;;;;;13.25;2.22;;;16.10;64.80;;;;;;4918787;29;20054;-80
2023/01/26 15:34:37;;;;;;;16.63;1.80;;;16.10;64.50;;;;;;4901662;29;20119;-75
2023/01/26 15:37:27;;;;;;;16.30;2.17;;;16.20;64.70;;;;;;4917998;29;20115;-73
2023/01/26 15:39:52;;;;;;;27.70;3.10;;;16.20;64.60;;;;;;4918956;29;20051;-78
2023/01/26 15:42:23;;;;;;;16.92;2.30;;;16.20;64.40;;;;;;4918619;29;20048;-77
2023/01/26 15:44:49;;;;;;;19.90;3.00;;;16.20;64.70;;;;;;4918607;29;20084;-77
2023/01/26 15:47:15;;;;;;;15.60;2.50;;;16.20;65.10;;;;;;4901534;29;20076;-73
2023/01/26 15:49:41;;;;;;;13.25;2.40;;;16.20;65.10;;;;;;4918433;29;20056;-78
2023/01/26 15:52:29;;;;;;;18.02;2.55;;;16.30;65.00;;;;;;4918489;29;20048;-80
2023/01/26 15:54:55;;;;;;;18.45;1.83;;;16.30;65.10;;;;;;4918489;29;20051;-77
2023/01/26 15:57:21;;;;;;;21.02;2.58;;;16.30;65.00;;;;;;4918483;29;20391;-75
2023/01/26 15:59:46;;;;;;;12.30;2.17;;;16.30;64.50;;;;;;4918063;29;20060;-76
2023/01/26 16:02:18;;;;;;;11.70;2.10;;;16.30;63.70;;;;;;4918161;29;20052;-75
2023/01/26 16:04:44;;;;;;;19.23;3.28;;;16.30;63.90;;;;;;4901075;29;20102;-76
2023/01/26 16:07:16;;;;;;;14.00;2.90;;;16.20;64.40;;;;;;4918290;29;20456;-76
2023/01/26 16:09:41;;;;;;;11.95;2.30;;;16.20;64.70;;;;;;4918329;29;20063;-75
2023/01/26 16:12:15;;;;;;;17.55;2.47;;;16.20;65.00;;;;;;4902318;29;20134;-76
2023/01/26 16:14:41;;;;;;;11.25;1.75;;;16.10;64.80;;;;;;4918329;29;20111;-75
2023/01/26 16:17:15;;;;;;;16.13;2.70;;;16.00;65.20;;;;;;4918503;29;20044;-76
2023/01/26 16:19:41;;;;;;;13.75;3.05;;;16.00;65.40;;;;;;4918162;29;20055;-76
2023/01/26 16:22:14;;;;;;;21.90;3.17;;;15.90;65.70;;;;;;4902712;29;20055;-74
2023/01/26 16:24:40;;;;;;;13.85;3.25;;;15.90;66.00;;;;;;4920790;29;20047;-76
2023/01/26 16:27:06;;;;;;;11.48;2.20;;;15.80;66.10;;;;;;4920782;29;20345;-75
2023/01/26 16:29:32;;;;;;;18.80;2.83;;;15.70;66.40;;;;;;4904333;29;20099;-74
2023/01/26 16:31:59;;;;;;;14.88;2.90;;;15.70;66.60;;;;;;4922009;29;20131;-74
2023/01/26 16:34:25;;;;;;;14.60;2.47;;;15.60;66.70;;;;;;4921756;29;20101;-75
2023/01/26 16:36:51;;;;;;;16.25;2.65;;;15.60;66.30;;;;;;4921834;29;20039;-74
2023/01/26 16:39:17;;;;;;;23.83;2.90;;;15.50;66.90;;;;;;4921375;29;20052;-73
2023/01/26 16:41:43;;;;;;;23.45;2.63;;;15.50;67.00;;;;;;4921586;29;20048;-73
2023/01/26 16:44:14;;;;;;;15.60;3.58;;;15.50;66.90;;;;;;4920319;29;20477;-74
2023/01/26 16:46:41;;;;;;;12.50;2.40;;;15.40;66.90;;;;;;4904626;29;20068;-79
2023/01/26 16:49:14;;;;;;;17.30;2.40;;;15.30;67.00;;;;;;4904276;29;20048;-73
2023/01/26 16:51:42;;;;;;;16.75;2.30;;;15.30;67.00;;;;;;4919229;29;20096;-75
2023/01/26 16:54:09;;;;;;;14.63;2.67;;;15.30;66.90;;;;;;4918145;29;20079;-76
2023/01/26 16:56:34;;;;;;;16.17;2.65;;;15.30;66.90;;;;;;4920505;29;20110;-77
2023/01/26 16:59:00;;;;;;;17.15;2.58;;;15.20;66.80;;;;;;4920378;29;20052;-76
2023/01/26 17:01:35;;;;;;;14.55;2.75;;;15.20;67.00;;;;;;4920277;29;20100;-76
2023/01/26 17:04:02;;;;;;;14.43;2.15;;;15.20;67.00;;;;;;4903845;29;20139;-76
2023/01/26 17:06:29;;;;;;;11.55;2.00;;;15.20;67.00;;;;;;4921124;29;20126;-74
2023/01/26 17:08:55;;;;;;;19.83;3.15;;;15.20;67.10;;;;;;4921009;29;20457;-77
2023/01/26 17:11:23;;;;;;;11.10;2.33;;;15.20;67.00;;;;;;4904466;29;20048;-79
2023/01/26 17:13:49;;;;;;;17.65;2.60;;;15.20;67.00;;;;;;4921349;29;20160;-78
2023/01/26 17:16:21;;;;;;;21.73;3.05;;;15.20;67.00;;;;;;4921407;29;20063;-77
2023/01/26 17:18:47;;;;;;;15.95;3.25;;;15.20;66.00;;;;;;4904695;29;20052;-79
2023/01/26 17:21:18;;;;;;;15.75;2.78;;;15.10;66.70;;;;;;4903809;29;20047;-79
2023/01/26 17:23:46;;;;;;;14.27;2.22;;;15.10;66.80;;;;;;4920748;29;20064;-78
2023/01/26 17:26:15;;;;;;;13.27;2.40;;;15.10;66.90;;;;;;4920277;29;20037;-78
2023/01/26 17:28:46;;;;;;;12.35;2.25;;;15.10;67.00;;;;;;4920476;29;20048;-78
2023/01/26 17:31:17;;;;;;;18.73;3.63;;;15.10;67.00;;;;;;4920425;29;20091;-78
2023/01/26 17:33:45;;;;;;;18.23;3.17;;;15.00;67.00;;;;;;4902217;29;20161;-77
2023/01/26 17:36:11;;;;;;;15.55;2.10;;;15.00;67.10;;;;;;4920128;29;20051;-77
2023/01/26 17:38:37;;;;;;;12.80;2.10;;;15.00;67.10;;;;;;4920147;29;20048;-79
2023/01/26 17:41:04;;;;;;;17.80;2.83;;;14.90;67.20;;;;;;4903279;29;20040;-78